Estación de Las Viñas

Ultimos registro cada 15 minutos 79
Estación Fecha / Hora Temperatura Humedad Lluvia Velocidad Dirección Radiación Presion
79 Las Viñas 31-08-2026 19:30 13,3 84 0 0 355 0 1025
78 Las Viñas 31-08-2026 19:15 13,3 85 0 0,4 351 0 1025
77 Las Viñas 31-08-2026 19:00 13,6 85 0 0 53 0 1024,8
76 Las Viñas 31-08-2026 18:45 13,8 85 0 0 360 0 1024,7
75 Las Viñas 31-08-2026 18:30 14,1 84 0 0,4 30 0 1024,6
74 Las Viñas 31-08-2026 18:15 14,2 83 0 0,4 359 5 1024,5
73 Las Viñas 31-08-2026 18:00 14,3 82 0 0,4 2 23 1024,5
72 Las Viñas 31-08-2026 17:45 14,5 82 0 0,4 8 39 1024,4
71 Las Viñas 31-08-2026 17:30 14,6 81 0 0,4 12 58 1024,4
70 Las Viñas 31-08-2026 17:15 14,7 81 0 0,9 6 49 1024,3
69 Las Viñas 31-08-2026 17:00 14,9 80 0 0,9 330 134 1024,3
68 Las Viñas 31-08-2026 16:45 15,1 81 0 1,3 22 151 1024,3
67 Las Viñas 31-08-2026 16:30 15,3 78 0 1,8 35 204 1024,2
66 Las Viñas 31-08-2026 16:15 15,5 79 0 1,3 357 547 1024,2
65 Las Viñas 31-08-2026 16:00 15,1 82 0 1,8 360 359 1024,2
64 Las Viñas 31-08-2026 15:45 14,8 84 0 0,4 12 281 1023,9
63 Las Viñas 31-08-2026 15:30 14,8 85 0 0,9 316 188 1024
62 Las Viñas 31-08-2026 15:15 14,4 86 0 1,8 339 352 1024,2
61 Las Viñas 31-08-2026 15:00 13,7 86 0 0,4 338 181 1024
60 Las Viñas 31-08-2026 14:45 13,8 86 2,4 1,3 313 67 1024,1
59 Las Viñas 31-08-2026 14:30 14,5 85 0,2 0,4 345 105 1024,3
58 Las Viñas 31-08-2026 14:15 14,5 83 0 2,2 303 91 1024,6
57 Las Viñas 31-08-2026 14:00 14,2 85 0 1,8 279 345 1024,6
56 Las Viñas 31-08-2026 13:45 14 86 0 2,7 19 132 1024,9
55 Las Viñas 31-08-2026 13:30 13,9 85 0 1,3 22 248 1025,1
54 Las Viñas 31-08-2026 13:15 13,7 86 0 3,1 31 301 1025,2
53 Las Viñas 31-08-2026 13:00 13,6 86 0 3,1 318 248 1025,4
52 Las Viñas 31-08-2026 12:45 13,3 86 0 2,7 336 534 1025,4
51 Las Viñas 31-08-2026 12:30 13 86 0 1,8 318 176 1025,6
50 Las Viñas 31-08-2026 12:15 13 84 0 2,2 16 234 1025,4
49 Las Viñas 31-08-2026 12:00 12,2 83 0 0,9 8 359 1025,6
48 Las Viñas 31-08-2026 11:45 11,8 84 0 1,8 33 155 1025,6
47 Las Viñas 31-08-2026 11:30 11,8 85 0 1,8 20 269 1025,5
46 Las Viñas 31-08-2026 11:15 11,6 86 0 1,8 322 218 1025,4
45 Las Viñas 31-08-2026 11:00 11,4 86 0,2 2,7 4 251 1025,5
44 Las Viñas 31-08-2026 10:45 11,2 85 0 2,2 341 151 1025,6
43 Las Viñas 31-08-2026 10:30 10,8 82 0 3,6 322 178 1025,5
42 Las Viñas 31-08-2026 10:15 10,6 79 0 0,9 338 151 1025,5
41 Las Viñas 31-08-2026 10:00 10,4 76 0 2,2 28 151 1025,5
40 Las Viñas 31-08-2026 09:45 10,1 76 0,2 0,9 26 192 1025,3
39 Las Viñas 31-08-2026 09:30 9,8 76 0 0,4 25 95 1025,4
38 Las Viñas 31-08-2026 09:15 9,7 76 0,2 0,9 7 58 1025,2
37 Las Viñas 31-08-2026 09:00 9,6 77 1 0,4 322 62 1025,2
36 Las Viñas 31-08-2026 08:45 9,6 77 0,2 0,4 6 16 1025
35 Las Viñas 31-08-2026 08:30 9,5 77 0 1,3 322 21 1024,6
34 Las Viñas 31-08-2026 08:15 9,5 77 0 0,9 3 46 1024,3
33 Las Viñas 31-08-2026 08:00 9,4 77 0 0,4 7 19 1024,2
32 Las Viñas 31-08-2026 07:45 9,4 77 0 0,4 353 26 1023,9
31 Las Viñas 31-08-2026 07:30 9,3 78 0 0 8 12 1023,6
30 Las Viñas 31-08-2026 07:15 9,4 78 0 0,4 336 0 1023,5
29 Las Viñas 31-08-2026 07:00 9,4 79 0,2 0,4 334 0 1023,4
28 Las Viñas 31-08-2026 06:45 9,4 79 0,2 0,4 4 0 1023,2
27 Las Viñas 31-08-2026 06:30 9,4 80 0,2 0,4 9 0 1023
26 Las Viñas 31-08-2026 06:15 9,4 81 0 1,3 6 0 1022,9
25 Las Viñas 31-08-2026 06:00 9,4 82 0 0,4 353 0 1022,6
24 Las Viñas 31-08-2026 05:45 9,4 83 0 0,4 341 0 1022,6
23 Las Viñas 31-08-2026 05:30 9,5 83 0,2 0,9 360 0 1022,3
22 Las Viñas 31-08-2026 05:15 9,5 84 0 0,9 4 0 1022,2
21 Las Viñas 31-08-2026 05:00 9,6 84 0,2 0,9 326 0 1022,1
20 Las Viñas 31-08-2026 04:45 9,6 85 0 1,3 336 0 1021,9
19 Las Viñas 31-08-2026 04:30 9,6 85 0 1,8 351 0 1021,8
18 Las Viñas 31-08-2026 04:15 9,6 85 0 0,4 22 0 1021,4
17 Las Viñas 31-08-2026 04:00 9,6 85 0 2,2 14 0 1021,4
16 Las Viñas 31-08-2026 03:45 9,7 86 0,2 0,4 10 0 1021,4
15 Las Viñas 31-08-2026 03:30 9,8 86 0 0,9 16 0 1021,4
14 Las Viñas 31-08-2026 03:15 9,9 86 0 1,8 7 0 1021,6
13 Las Viñas 31-08-2026 03:00 9,9 86 0 1,3 8 0 1021,6
12 Las Viñas 31-08-2026 02:45 9,9 86 0 1,3 3 0 1021,6
11 Las Viñas 31-08-2026 02:30 9,8 86 0 0,9 358 0 1021,6
10 Las Viñas 31-08-2026 02:15 9,9 86 0 0,9 16 0 1021,5
9 Las Viñas 31-08-2026 02:00 9,9 86 0 1,3 14 0 1021,5
8 Las Viñas 31-08-2026 01:45 9,9 86 0 1,8 341 0 1021,4
7 Las Viñas 31-08-2026 01:30 9,9 86 0 1,8 350 0 1021,3
6 Las Viñas 31-08-2026 01:15 9,9 86 0 2,7 2 0 1021,1
5 Las Viñas 31-08-2026 01:00 9,9 86 0 0,9 2 0 1021,1
4 Las Viñas 31-08-2026 00:45 9,9 86 0 1,8 347 0 1020,9
3 Las Viñas 31-08-2026 00:30 9,8 86 0 3,6 25 0 1020,5
2 Las Viñas 31-08-2026 00:15 9,8 85 0 1,8 35 0 1020,6
1 Las Viñas 31-08-2026 00:00 9,7 85 0 1,8 9 0 1020,8